Decoded Metar for LFPO (PARIS ORLY in FRANCE) (IATA:ORY) | Meteo·Mobile Aviation Weather
aviador You're here:

LFPO Decoded Metar

PARIS ORLY in FRANCE
Report Time2019-04-20 11:00:00
UTC Time2019-04-20 11:14:02
Flight Rules vfr VFR
Wind060° at 11 kt
W.Decomp.*RWY 06: 11.0 kt HW 0.2 kt RCW
RWY 08: 10.4 kt HW 3.6 kt LCW
RWY 02: 8.3 kt HW 7.2 kt RCW
Visibility9999 m
Phenomena:N/A
Clouds:N/A
Expected CloudBase > 6,400 ft AGL from Temp-Dew spread
CeilingNone
Temp24°C (ISA +10)
Dew Point08°C (36% RH)
AAT19.6°C
QNH1026 hPa
Density Alt1,145 ft
Elevation315 ft
Report Wrong Elevation
Raw Report
LFPO 201100Z 06011KT 040V100 CAVOK 24/08 Q1026 NOSIG=

Extra information for LFPO:More info

Metar Taf Metar & Taf Last 4 Metars F.Rules Stats Wind Profile Meteogram Temp Stats Airport Information Weather charts Add Link Nearby VenuesMetar ALERT Operation Metar Decoded Social comments